sensor_id;sensor_type;location;lat;lon;timestamp;P1;durP1;ratioP1;P2;durP2;ratioP2
21274;SDS011;36472;52.170;20.884;2023-07-28T00:00:35;5.55;;;4.47;;
21274;SDS011;36472;52.170;20.884;2023-07-28T00:03:24;6.35;;;4.50;;
21274;SDS011;36472;52.170;20.884;2023-07-28T00:05:53;4.95;;;4.22;;
21274;SDS011;36472;52.170;20.884;2023-07-28T00:08:22;5.40;;;4.38;;
21274;SDS011;36472;52.170;20.884;2023-07-28T00:10:51;5.90;;;4.22;;
21274;SDS011;36472;52.170;20.884;2023-07-28T00:13:20;6.07;;;4.10;;
21274;SDS011;36472;52.170;20.884;2023-07-28T00:15:50;6.38;;;4.05;;
21274;SDS011;36472;52.170;20.884;2023-07-28T00:18:19;5.68;;;3.92;;
21274;SDS011;36472;52.170;20.884;2023-07-28T00:20:48;4.82;;;4.13;;
21274;SDS011;36472;52.170;20.884;2023-07-28T00:23:17;4.03;;;3.60;;
21274;SDS011;36472;52.170;20.884;2023-07-28T00:25:46;4.85;;;3.78;;
21274;SDS011;36472;52.170;20.884;2023-07-28T00:28:15;4.50;;;4.10;;
21274;SDS011;36472;52.170;20.884;2023-07-28T00:30:43;6.20;;;4.15;;
21274;SDS011;36472;52.170;20.884;2023-07-28T00:33:17;4.85;;;3.92;;
21274;SDS011;36472;52.170;20.884;2023-07-28T00:35:46;6.10;;;4.13;;
21274;SDS011;36472;52.170;20.884;2023-07-28T00:38:16;5.38;;;3.80;;
21274;SDS011;36472;52.170;20.884;2023-07-28T00:40:45;4.85;;;3.90;;
21274;SDS011;36472;52.170;20.884;2023-07-28T00:43:14;5.82;;;4.30;;
21274;SDS011;36472;52.170;20.884;2023-07-28T00:45:43;5.65;;;4.05;;
21274;SDS011;36472;52.170;20.884;2023-07-28T00:48:13;5.40;;;3.65;;
21274;SDS011;36472;52.170;20.884;2023-07-28T00:50:45;5.72;;;4.10;;
21274;SDS011;36472;52.170;20.884;2023-07-28T00:53:16;4.00;;;3.60;;
21274;SDS011;36472;52.170;20.884;2023-07-28T00:55:45;4.30;;;3.80;;
21274;SDS011;36472;52.170;20.884;2023-07-28T00:58:15;4.82;;;3.72;;
21274;SDS011;36472;52.170;20.884;2023-07-28T01:00:44;5.50;;;3.60;;
21274;SDS011;36472;52.170;20.884;2023-07-28T01:03:14;5.30;;;3.47;;
21274;SDS011;36472;52.170;20.884;2023-07-28T01:05:48;5.15;;;3.75;;
21274;SDS011;36472;52.170;20.884;2023-07-28T01:08:38;4.40;;;3.90;;
21274;SDS011;36472;52.170;20.884;2023-07-28T01:11:15;5.75;;;3.70;;
21274;SDS011;36472;52.170;20.884;2023-07-28T01:13:45;5.25;;;3.80;;
21274;SDS011;36472;52.170;20.884;2023-07-28T01:16:14;4.90;;;3.78;;
21274;SDS011;36472;52.170;20.884;2023-07-28T01:18:43;5.93;;;3.97;;
21274;SDS011;36472;52.170;20.884;2023-07-28T01:21:16;5.22;;;3.75;;
21274;SDS011;36472;52.170;20.884;2023-07-28T01:23:52;4.28;;;3.50;;
21274;SDS011;36472;52.170;20.884;2023-07-28T01:26:35;4.80;;;3.70;;
21274;SDS011;36472;52.170;20.884;2023-07-28T01:29:05;5.05;;;3.83;;
21274;SDS011;36472;52.170;20.884;2023-07-28T01:31:35;5.70;;;4.05;;
21274;SDS011;36472;52.170;20.884;2023-07-28T01:34:04;5.78;;;4.20;;
21274;SDS011;36472;52.170;20.884;2023-07-28T01:36:33;4.22;;;3.83;;
21274;SDS011;36472;52.170;20.884;2023-07-28T01:39:03;7.20;;;4.32;;
21274;SDS011;36472;52.170;20.884;2023-07-28T01:41:31;4.80;;;4.25;;
21274;SDS011;36472;52.170;20.884;2023-07-28T01:44:02;5.30;;;4.80;;
21274;SDS011;36472;52.170;20.884;2023-07-28T01:46:31;6.18;;;4.40;;
21274;SDS011;36472;52.170;20.884;2023-07-28T01:49:00;6.43;;;4.47;;
21274;SDS011;36472;52.170;20.884;2023-07-28T01:51:29;5.30;;;4.30;;
21274;SDS011;36472;52.170;20.884;2023-07-28T01:53:58;5.20;;;4.20;;
21274;SDS011;36472;52.170;20.884;2023-07-28T01:56:27;6.25;;;4.40;;
21274;SDS011;36472;52.170;20.884;2023-07-28T01:58:58;7.95;;;4.75;;
21274;SDS011;36472;52.170;20.884;2023-07-28T02:01:29;5.55;;;4.55;;
21274;SDS011;36472;52.170;20.884;2023-07-28T02:03:58;5.70;;;4.32;;
21274;SDS011;36472;52.170;20.884;2023-07-28T02:06:27;7.28;;;4.50;;
21274;SDS011;36472;52.170;20.884;2023-07-28T02:08:58;4.15;;;3.75;;
21274;SDS011;36472;52.170;20.884;2023-07-28T02:11:27;5.97;;;4.30;;
21274;SDS011;36472;52.170;20.884;2023-07-28T02:13:56;5.97;;;4.00;;
21274;SDS011;36472;52.170;20.884;2023-07-28T02:16:26;4.15;;;3.70;;
21274;SDS011;36472;52.170;20.884;2023-07-28T02:18:59;4.38;;;3.78;;
21274;SDS011;36472;52.170;20.884;2023-07-28T02:21:28;5.53;;;3.92;;
21274;SDS011;36472;52.170;20.884;2023-07-28T02:23:57;6.53;;;4.15;;
21274;SDS011;36472;52.170;20.884;2023-07-28T02:26:27;4.97;;;4.43;;
21274;SDS011;36472;52.170;20.884;2023-07-28T02:28:56;5.13;;;3.72;;
21274;SDS011;36472;52.170;20.884;2023-07-28T02:31:24;5.43;;;4.40;;
21274;SDS011;36472;52.170;20.884;2023-07-28T02:33:54;3.92;;;3.53;;
21274;SDS011;36472;52.170;20.884;2023-07-28T02:36:24;5.30;;;3.90;;
21274;SDS011;36472;52.170;20.884;2023-07-28T02:38:54;7.03;;;4.53;;
21274;SDS011;36472;52.170;20.884;2023-07-28T02:41:22;5.43;;;4.10;;
21274;SDS011;36472;52.170;20.884;2023-07-28T02:43:51;6.55;;;4.40;;
21274;SDS011;36472;52.170;20.884;2023-07-28T02:46:20;7.75;;;4.40;;
21274;SDS011;36472;52.170;20.884;2023-07-28T02:48:49;4.80;;;4.25;;
21274;SDS011;36472;52.170;20.884;2023-07-28T02:51:18;5.22;;;4.30;;
21274;SDS011;36472;52.170;20.884;2023-07-28T02:53:49;4.78;;;3.88;;
21274;SDS011;36472;52.170;20.884;2023-07-28T02:56:17;4.95;;;4.07;;
21274;SDS011;36472;52.170;20.884;2023-07-28T02:58:47;6.75;;;4.10;;
21274;SDS011;36472;52.170;20.884;2023-07-28T03:01:17;4.95;;;4.22;;
21274;SDS011;36472;52.170;20.884;2023-07-28T03:03:46;4.93;;;4.43;;
21274;SDS011;36472;52.170;20.884;2023-07-28T03:06:16;6.78;;;4.35;;
21274;SDS011;36472;52.170;20.884;2023-07-28T03:08:45;6.30;;;4.50;;
21274;SDS011;36472;52.170;20.884;2023-07-28T03:11:51;5.32;;;4.65;;
21274;SDS011;36472;52.170;20.884;2023-07-28T03:14:20;5.22;;;4.15;;
21274;SDS011;36472;52.170;20.884;2023-07-28T03:16:49;6.13;;;4.50;;
21274;SDS011;36472;52.170;20.884;2023-07-28T03:19:20;4.80;;;4.28;;
21274;SDS011;36472;52.170;20.884;2023-07-28T03:21:50;5.03;;;4.40;;
21274;SDS011;36472;52.170;20.884;2023-07-28T03:24:19;5.93;;;4.10;;
21274;SDS011;36472;52.170;20.884;2023-07-28T03:26:48;5.75;;;4.57;;
21274;SDS011;36472;52.170;20.884;2023-07-28T03:29:18;4.68;;;3.90;;
21274;SDS011;36472;52.170;20.884;2023-07-28T03:31:47;5.70;;;4.20;;
21274;SDS011;36472;52.170;20.884;2023-07-28T03:34:17;4.40;;;3.95;;
21274;SDS011;36472;52.170;20.884;2023-07-28T03:36:46;7.75;;;4.60;;
21274;SDS011;36472;52.170;20.884;2023-07-28T03:39:16;5.05;;;4.45;;
21274;SDS011;36472;52.170;20.884;2023-07-28T03:41:47;5.38;;;4.88;;
21274;SDS011;36472;52.170;20.884;2023-07-28T03:44:18;5.07;;;4.55;;
21274;SDS011;36472;52.170;20.884;2023-07-28T03:46:47;5.85;;;4.68;;
21274;SDS011;36472;52.170;20.884;2023-07-28T03:49:16;5.38;;;4.65;;
21274;SDS011;36472;52.170;20.884;2023-07-28T03:51:45;5.68;;;4.55;;
21274;SDS011;36472;52.170;20.884;2023-07-28T03:54:14;5.18;;;4.68;;
21274;SDS011;36472;52.170;20.884;2023-07-28T03:56:43;7.57;;;4.88;;
21274;SDS011;36472;52.170;20.884;2023-07-28T03:59:12;4.90;;;4.32;;
21274;SDS011;36472;52.170;20.884;2023-07-28T04:01:42;5.13;;;4.63;;
21274;SDS011;36472;52.170;20.884;2023-07-28T04:04:11;7.97;;;5.15;;
21274;SDS011;36472;52.170;20.884;2023-07-28T04:06:40;5.43;;;4.70;;
21274;SDS011;36472;52.170;20.884;2023-07-28T04:09:12;6.75;;;4.65;;
21274;SDS011;36472;52.170;20.884;2023-07-28T04:11:43;7.60;;;4.88;;
21274;SDS011;36472;52.170;20.884;2023-07-28T04:14:12;4.63;;;4.05;;
21274;SDS011;36472;52.170;20.884;2023-07-28T04:16:43;5.82;;;4.28;;
21274;SDS011;36472;52.170;20.884;2023-07-28T04:19:12;5.00;;;4.53;;
21274;SDS011;36472;52.170;20.884;2023-07-28T04:21:41;4.88;;;4.38;;
21274;SDS011;36472;52.170;20.884;2023-07-28T04:24:11;5.43;;;4.53;;
21274;SDS011;36472;52.170;20.884;2023-07-28T04:26:45;5.63;;;4.70;;
21274;SDS011;36472;52.170;20.884;2023-07-28T04:29:17;5.78;;;4.25;;
21274;SDS011;36472;52.170;20.884;2023-07-28T04:31:48;5.07;;;4.57;;
21274;SDS011;36472;52.170;20.884;2023-07-28T04:34:25;4.57;;;3.88;;
21274;SDS011;36472;52.170;20.884;2023-07-28T04:37:11;7.00;;;4.38;;
21274;SDS011;36472;52.170;20.884;2023-07-28T04:39:55;4.45;;;3.70;;
21274;SDS011;36472;52.170;20.884;2023-07-28T04:42:29;4.20;;;3.80;;
21274;SDS011;36472;52.170;20.884;2023-07-28T04:44:58;5.13;;;3.97;;
21274;SDS011;36472;52.170;20.884;2023-07-28T04:47:29;6.90;;;3.83;;
21274;SDS011;36472;52.170;20.884;2023-07-28T04:49:58;6.18;;;3.97;;
21274;SDS011;36472;52.170;20.884;2023-07-28T04:52:50;5.30;;;4.10;;
21274;SDS011;36472;52.170;20.884;2023-07-28T04:55:39;5.65;;;3.90;;
21274;SDS011;36472;52.170;20.884;2023-07-28T04:58:08;4.10;;;3.70;;
21274;SDS011;36472;52.170;20.884;2023-07-28T05:00:49;5.07;;;3.83;;
21274;SDS011;36472;52.170;20.884;2023-07-28T05:03:19;4.80;;;4.30;;
21274;SDS011;36472;52.170;20.884;2023-07-28T05:05:55;6.05;;;4.18;;
21274;SDS011;36472;52.170;20.884;2023-07-28T05:08:24;6.30;;;4.07;;
21274;SDS011;36472;52.170;20.884;2023-07-28T05:10:55;4.60;;;3.78;;
21274;SDS011;36472;52.170;20.884;2023-07-28T05:13:25;6.03;;;4.22;;
21274;SDS011;36472;52.170;20.884;2023-07-28T05:15:56;3.92;;;3.63;;
21274;SDS011;36472;52.170;20.884;2023-07-28T05:18:46;6.00;;;4.28;;
21274;SDS011;36472;52.170;20.884;2023-07-28T05:21:34;6.55;;;4.68;;
21274;SDS011;36472;52.170;20.884;2023-07-28T05:24:03;6.15;;;3.50;;
21274;SDS011;36472;52.170;20.884;2023-07-28T05:26:34;5.03;;;3.88;;
21274;SDS011;36472;52.170;20.884;2023-07-28T05:29:03;8.38;;;4.00;;
21274;SDS011;36472;52.170;20.884;2023-07-28T05:31:32;5.95;;;3.90;;
21274;SDS011;36472;52.170;20.884;2023-07-28T05:34:06;5.40;;;3.90;;
21274;SDS011;36472;52.170;20.884;2023-07-28T05:36:35;6.28;;;4.00;;
21274;SDS011;36472;52.170;20.884;2023-07-28T05:39:04;5.05;;;3.70;;
21274;SDS011;36472;52.170;20.884;2023-07-28T05:41:39;4.68;;;3.60;;
21274;SDS011;36472;52.170;20.884;2023-07-28T05:44:10;6.10;;;3.90;;
21274;SDS011;36472;52.170;20.884;2023-07-28T05:46:39;5.80;;;3.65;;
21274;SDS011;36472;52.170;20.884;2023-07-28T05:49:09;4.43;;;3.90;;
21274;SDS011;36472;52.170;20.884;2023-07-28T05:51:38;5.15;;;4.00;;
21274;SDS011;36472;52.170;20.884;2023-07-28T05:54:11;5.05;;;3.50;;
21274;SDS011;36472;52.170;20.884;2023-07-28T05:56:41;4.82;;;3.60;;
21274;SDS011;36472;52.170;20.884;2023-07-28T05:59:11;4.88;;;4.25;;
21274;SDS011;36472;52.170;20.884;2023-07-28T06:01:40;6.60;;;3.70;;
21274;SDS011;36472;52.170;20.884;2023-07-28T06:04:19;4.65;;;3.70;;
21274;SDS011;36472;52.170;20.884;2023-07-28T06:06:52;6.20;;;3.85;;
21274;SDS011;36472;52.170;20.884;2023-07-28T06:09:20;6.00;;;4.13;;
21274;SDS011;36472;52.170;20.884;2023-07-28T06:11:49;4.97;;;3.50;;
21274;SDS011;36472;52.170;20.884;2023-07-28T06:14:18;6.47;;;3.97;;
21274;SDS011;36472;52.170;20.884;2023-07-28T06:16:47;6.38;;;3.88;;
21274;SDS011;36472;52.170;20.884;2023-07-28T06:19:16;6.78;;;3.78;;
21274;SDS011;36472;52.170;20.884;2023-07-28T06:21:53;6.22;;;3.50;;
21274;SDS011;36472;52.170;20.884;2023-07-28T06:24:21;6.88;;;4.07;;
21274;SDS011;36472;52.170;20.884;2023-07-28T06:26:51;5.75;;;3.58;;
21274;SDS011;36472;52.170;20.884;2023-07-28T06:29:20;5.03;;;3.88;;
21274;SDS011;36472;52.170;20.884;2023-07-28T06:31:50;6.00;;;4.00;;
21274;SDS011;36472;52.170;20.884;2023-07-28T06:34:18;4.38;;;3.70;;
21274;SDS011;36472;52.170;20.884;2023-07-28T06:36:48;5.57;;;3.75;;
21274;SDS011;36472;52.170;20.884;2023-07-28T06:39:18;6.97;;;4.10;;
21274;SDS011;36472;52.170;20.884;2023-07-28T06:41:48;4.13;;;3.45;;
21274;SDS011;36472;52.170;20.884;2023-07-28T06:44:18;4.22;;;3.22;;
21274;SDS011;36472;52.170;20.884;2023-07-28T06:46:47;5.60;;;3.70;;
21274;SDS011;36472;52.170;20.884;2023-07-28T06:49:16;7.00;;;3.90;;
21274;SDS011;36472;52.170;20.884;2023-07-28T06:51:45;4.85;;;3.80;;
21274;SDS011;36472;52.170;20.884;2023-07-28T06:54:14;4.60;;;3.58;;
21274;SDS011;36472;52.170;20.884;2023-07-28T06:56:44;4.57;;;3.53;;
21274;SDS011;36472;52.170;20.884;2023-07-28T06:59:13;4.85;;;3.67;;
21274;SDS011;36472;52.170;20.884;2023-07-28T07:01:48;5.25;;;3.85;;
21274;SDS011;36472;52.170;20.884;2023-07-28T07:04:17;4.32;;;3.88;;
21274;SDS011;36472;52.170;20.884;2023-07-28T07:06:47;5.40;;;3.67;;
21274;SDS011;36472;52.170;20.884;2023-07-28T07:09:16;4.78;;;3.83;;
21274;SDS011;36472;52.170;20.884;2023-07-28T07:11:46;6.55;;;4.35;;
21274;SDS011;36472;52.170;20.884;2023-07-28T07:14:15;5.45;;;4.10;;
21274;SDS011;36472;52.170;20.884;2023-07-28T07:16:44;5.10;;;4.32;;
21274;SDS011;36472;52.170;20.884;2023-07-28T07:19:13;6.00;;;4.05;;
21274;SDS011;36472;52.170;20.884;2023-07-28T07:21:42;7.18;;;4.32;;
21274;SDS011;36472;52.170;20.884;2023-07-28T07:24:11;5.70;;;4.13;;
21274;SDS011;36472;52.170;20.884;2023-07-28T07:26:41;4.68;;;4.13;;
21274;SDS011;36472;52.170;20.884;2023-07-28T07:29:12;6.28;;;4.65;;
21274;SDS011;36472;52.170;20.884;2023-07-28T07:31:41;6.45;;;4.35;;
21274;SDS011;36472;52.170;20.884;2023-07-28T07:34:10;5.72;;;4.35;;
21274;SDS011;36472;52.170;20.884;2023-07-28T07:36:39;5.97;;;4.25;;
21274;SDS011;36472;52.170;20.884;2023-07-28T07:39:08;5.97;;;4.30;;
21274;SDS011;36472;52.170;20.884;2023-07-28T07:41:37;8.45;;;4.45;;
21274;SDS011;36472;52.170;20.884;2023-07-28T07:44:06;7.28;;;4.15;;
21274;SDS011;36472;52.170;20.884;2023-07-28T07:46:36;5.93;;;4.78;;
21274;SDS011;36472;52.170;20.884;2023-07-28T07:49:07;7.25;;;4.93;;
21274;SDS011;36472;52.170;20.884;2023-07-28T07:51:36;6.47;;;4.80;;
21274;SDS011;36472;52.170;20.884;2023-07-28T07:54:05;7.80;;;5.10;;
21274;SDS011;36472;52.170;20.884;2023-07-28T07:56:34;6.28;;;4.80;;
21274;SDS011;36472;52.170;20.884;2023-07-28T07:59:03;8.20;;;4.85;;
21274;SDS011;36472;52.170;20.884;2023-07-28T08:01:33;6.82;;;4.50;;
21274;SDS011;36472;52.170;20.884;2023-07-28T08:04:03;6.18;;;4.82;;
21274;SDS011;36472;52.170;20.884;2023-07-28T08:06:33;5.07;;;4.57;;
21274;SDS011;36472;52.170;20.884;2023-07-28T08:09:01;5.50;;;4.95;;
21274;SDS011;36472;52.170;20.884;2023-07-28T08:11:31;5.60;;;4.78;;
21274;SDS011;36472;52.170;20.884;2023-07-28T08:14:00;4.97;;;3.70;;
21274;SDS011;36472;52.170;20.884;2023-07-28T08:16:30;5.43;;;4.50;;
21274;SDS011;36472;52.170;20.884;2023-07-28T08:18:59;5.63;;;4.30;;
21274;SDS011;36472;52.170;20.884;2023-07-28T08:21:29;6.00;;;4.80;;
21274;SDS011;36472;52.170;20.884;2023-07-28T08:24:04;6.53;;;4.50;;
21274;SDS011;36472;52.170;20.884;2023-07-28T08:26:33;4.35;;;3.80;;
21274;SDS011;36472;52.170;20.884;2023-07-28T08:29:02;6.10;;;4.18;;
21274;SDS011;36472;52.170;20.884;2023-07-28T08:31:32;6.15;;;4.30;;
21274;SDS011;36472;52.170;20.884;2023-07-28T08:34:01;5.35;;;4.72;;
21274;SDS011;36472;52.170;20.884;2023-07-28T08:36:32;5.43;;;4.50;;
21274;SDS011;36472;52.170;20.884;2023-07-28T08:39:01;5.18;;;4.20;;
21274;SDS011;36472;52.170;20.884;2023-07-28T08:41:30;6.03;;;4.35;;
21274;SDS011;36472;52.170;20.884;2023-07-28T08:44:00;5.13;;;4.53;;
21274;SDS011;36472;52.170;20.884;2023-07-28T08:46:30;6.10;;;3.90;;
21274;SDS011;36472;52.170;20.884;2023-07-28T08:49:01;6.85;;;4.35;;
21274;SDS011;36472;52.170;20.884;2023-07-28T08:51:30;4.78;;;4.13;;
21274;SDS011;36472;52.170;20.884;2023-07-28T08:54:01;6.65;;;4.40;;
21274;SDS011;36472;52.170;20.884;2023-07-28T08:56:30;5.43;;;4.55;;
21274;SDS011;36472;52.170;20.884;2023-07-28T08:58:59;5.22;;;3.95;;
21274;SDS011;36472;52.170;20.884;2023-07-28T09:01:28;5.20;;;4.45;;
21274;SDS011;36472;52.170;20.884;2023-07-28T09:03:58;5.45;;;4.53;;
21274;SDS011;36472;52.170;20.884;2023-07-28T09:06:28;5.68;;;4.78;;
21274;SDS011;36472;52.170;20.884;2023-07-28T09:08:59;5.90;;;4.63;;
21274;SDS011;36472;52.170;20.884;2023-07-28T09:11:30;6.75;;;4.07;;
21274;SDS011;36472;52.170;20.884;2023-07-28T09:14:00;7.70;;;4.50;;
21274;SDS011;36472;52.170;20.884;2023-07-28T09:16:29;4.80;;;4.10;;
21274;SDS011;36472;52.170;20.884;2023-07-28T09:19:03;5.07;;;4.57;;
21274;SDS011;36472;52.170;20.884;2023-07-28T09:21:34;5.30;;;4.50;;
21274;SDS011;36472;52.170;20.884;2023-07-28T09:24:05;7.70;;;5.05;;
21274;SDS011;36472;52.170;20.884;2023-07-28T09:26:37;5.03;;;4.47;;
21274;SDS011;36472;52.170;20.884;2023-07-28T09:29:11;5.60;;;4.13;;
21274;SDS011;36472;52.170;20.884;2023-07-28T09:31:46;6.05;;;4.18;;
21274;SDS011;36472;52.170;20.884;2023-07-28T09:34:23;5.63;;;4.00;;
21274;SDS011;36472;52.170;20.884;2023-07-28T09:36:54;7.35;;;4.15;;
21274;SDS011;36472;52.170;20.884;2023-07-28T09:39:25;5.93;;;4.20;;
21274;SDS011;36472;52.170;20.884;2023-07-28T09:41:55;5.78;;;3.90;;
21274;SDS011;36472;52.170;20.884;2023-07-28T09:44:27;6.35;;;3.78;;
21274;SDS011;36472;52.170;20.884;2023-07-28T09:46:57;6.20;;;4.53;;
21274;SDS011;36472;52.170;20.884;2023-07-28T09:49:27;4.65;;;4.00;;
21274;SDS011;36472;52.170;20.884;2023-07-28T09:52:04;6.22;;;4.35;;
21274;SDS011;36472;52.170;20.884;2023-07-28T09:54:39;4.05;;;3.65;;
21274;SDS011;36472;52.170;20.884;2023-07-28T09:57:11;5.00;;;4.22;;
21274;SDS011;36472;52.170;20.884;2023-07-28T09:59:42;4.97;;;3.88;;
21274;SDS011;36472;52.170;20.884;2023-07-28T10:02:15;6.07;;;3.90;;
21274;SDS011;36472;52.170;20.884;2023-07-28T10:04:45;7.78;;;4.05;;
21274;SDS011;36472;52.170;20.884;2023-07-28T10:07:14;4.97;;;3.92;;
21274;SDS011;36472;52.170;20.884;2023-07-28T10:09:45;6.35;;;4.20;;
21274;SDS011;36472;52.170;20.884;2023-07-28T10:12:18;6.57;;;4.13;;
21274;SDS011;36472;52.170;20.884;2023-07-28T10:14:59;4.90;;;4.40;;
21274;SDS011;36472;52.170;20.884;2023-07-28T10:17:30;6.38;;;3.83;;
21274;SDS011;36472;52.170;20.884;2023-07-28T10:20:02;7.15;;;4.32;;
21274;SDS011;36472;52.170;20.884;2023-07-28T10:22:42;7.38;;;4.00;;
21274;SDS011;36472;52.170;20.884;2023-07-28T10:25:15;4.95;;;4.25;;
21274;SDS011;36472;52.170;20.884;2023-07-28T10:27:52;5.70;;;3.97;;
21274;SDS011;36472;52.170;20.884;2023-07-28T10:30:22;4.85;;;4.15;;
21274;SDS011;36472;52.170;20.884;2023-07-28T10:32:53;5.47;;;4.00;;
21274;SDS011;36472;52.170;20.884;2023-07-28T10:35:25;5.40;;;4.10;;
21274;SDS011;36472;52.170;20.884;2023-07-28T10:37:56;4.32;;;3.92;;
21274;SDS011;36472;52.170;20.884;2023-07-28T10:40:30;6.32;;;4.38;;
21274;SDS011;36472;52.170;20.884;2023-07-28T10:43:02;4.88;;;4.28;;
21274;SDS011;36472;52.170;20.884;2023-07-28T10:45:32;5.28;;;4.10;;
21274;SDS011;36472;52.170;20.884;2023-07-28T10:48:01;5.68;;;4.10;;
21274;SDS011;36472;52.170;20.884;2023-07-28T10:50:31;5.75;;;4.00;;
21274;SDS011;36472;52.170;20.884;2023-07-28T10:53:01;5.10;;;3.80;;
21274;SDS011;36472;52.170;20.884;2023-07-28T10:55:32;4.63;;;4.13;;
21274;SDS011;36472;52.170;20.884;2023-07-28T10:58:03;4.30;;;3.90;;
21274;SDS011;36472;52.170;20.884;2023-07-28T11:00:32;4.97;;;3.40;;
21274;SDS011;36472;52.170;20.884;2023-07-28T11:03:01;9.60;;;3.90;;
21274;SDS011;36472;52.170;20.884;2023-07-28T11:05:30;4.53;;;3.50;;
21274;SDS011;36472;52.170;20.884;2023-07-28T11:08:00;6.88;;;3.75;;
21274;SDS011;36472;52.170;20.884;2023-07-28T11:10:31;4.55;;;4.10;;
21274;SDS011;36472;52.170;20.884;2023-07-28T11:13:02;5.00;;;4.15;;
21274;SDS011;36472;52.170;20.884;2023-07-28T11:15:53;5.07;;;4.13;;
21274;SDS011;36472;52.170;20.884;2023-07-28T11:18:24;5.75;;;3.65;;
21274;SDS011;36472;52.170;20.884;2023-07-28T11:20:54;4.13;;;3.28;;
21274;SDS011;36472;52.170;20.884;2023-07-28T11:23:23;3.38;;;2.50;;
21274;SDS011;36472;52.170;20.884;2023-07-28T11:25:53;4.18;;;2.30;;
21274;SDS011;36472;52.170;20.884;2023-07-28T11:28:22;2.92;;;2.00;;
21274;SDS011;36472;52.170;20.884;2023-07-28T11:30:52;3.10;;;2.17;;
21274;SDS011;36472;52.170;20.884;2023-07-28T11:33:22;3.40;;;1.80;;
21274;SDS011;36472;52.170;20.884;2023-07-28T11:35:51;2.03;;;1.50;;
21274;SDS011;36472;52.170;20.884;2023-07-28T11:38:24;2.20;;;1.45;;
21274;SDS011;36472;52.170;20.884;2023-07-28T11:40:57;4.05;;;1.55;;
21274;SDS011;36472;52.170;20.884;2023-07-28T11:43:26;1.38;;;1.08;;
21274;SDS011;36472;52.170;20.884;2023-07-28T11:45:56;1.85;;;1.40;;
21274;SDS011;36472;52.170;20.884;2023-07-28T11:48:29;2.15;;;1.50;;
21274;SDS011;36472;52.170;20.884;2023-07-28T11:50:59;1.33;;;1.15;;
21274;SDS011;36472;52.170;20.884;2023-07-28T11:53:28;2.38;;;1.83;;
21274;SDS011;36472;52.170;20.884;2023-07-28T11:56:03;1.90;;;1.17;;
21274;SDS011;36472;52.170;20.884;2023-07-28T11:58:32;3.58;;;1.27;;
21274;SDS011;36472;52.170;20.884;2023-07-28T12:01:07;2.60;;;1.17;;
21274;SDS011;36472;52.170;20.884;2023-07-28T12:03:37;3.60;;;1.35;;
21274;SDS011;36472;52.170;20.884;2023-07-28T12:06:06;3.47;;;1.30;;
21274;SDS011;36472;52.170;20.884;2023-07-28T12:08:40;1.40;;;1.10;;
21274;SDS011;36472;52.170;20.884;2023-07-28T12:11:13;2.67;;;1.42;;
21274;SDS011;36472;52.170;20.884;2023-07-28T12:14:04;2.03;;;1.02;;
21274;SDS011;36472;52.170;20.884;2023-07-28T12:16:53;2.08;;;1.27;;
21274;SDS011;36472;52.170;20.884;2023-07-28T12:19:25;1.80;;;1.40;;
21274;SDS011;36472;52.170;20.884;2023-07-28T12:21:54;1.25;;;1.10;;
21274;SDS011;36472;52.170;20.884;2023-07-28T12:24:23;2.08;;;1.25;;
21274;SDS011;36472;52.170;20.884;2023-07-28T12:26:53;1.92;;;1.17;;
21274;SDS011;36472;52.170;20.884;2023-07-28T12:29:25;1.75;;;1.60;;
21274;SDS011;36472;52.170;20.884;2023-07-28T12:31:57;1.40;;;1.23;;
21274;SDS011;36472;52.170;20.884;2023-07-28T12:34:30;2.13;;;2.00;;
21274;SDS011;36472;52.170;20.884;2023-07-28T12:37:17;1.65;;;1.25;;
21274;SDS011;36472;52.170;20.884;2023-07-28T12:40:07;2.17;;;1.40;;
21274;SDS011;36472;52.170;20.884;2023-07-28T12:43:00;1.73;;;1.30;;
21274;SDS011;36472;52.170;20.884;2023-07-28T12:45:33;1.77;;;1.15;;
21274;SDS011;36472;52.170;20.884;2023-07-28T12:48:05;1.30;;;1.20;;
21274;SDS011;36472;52.170;20.884;2023-07-28T12:50:46;2.00;;;1.42;;
21274;SDS011;36472;52.170;20.884;2023-07-28T12:53:15;1.58;;;1.20;;
21274;SDS011;36472;52.170;20.884;2023-07-28T12:55:49;1.70;;;1.10;;
21274;SDS011;36472;52.170;20.884;2023-07-28T12:58:22;2.20;;;0.93;;
21274;SDS011;36472;52.170;20.884;2023-07-28T13:01:12;0.73;;;0.73;;
21274;SDS011;36472;52.170;20.884;2023-07-28T13:03:42;3.15;;;0.98;;
21274;SDS011;36472;52.170;20.884;2023-07-28T13:06:11;1.48;;;0.85;;
21274;SDS011;36472;52.170;20.884;2023-07-28T13:08:40;1.33;;;1.00;;
21274;SDS011;36472;52.170;20.884;2023-07-28T13:11:11;1.13;;;0.90;;
21274;SDS011;36472;52.170;20.884;2023-07-28T13:13:46;1.25;;;0.90;;
21274;SDS011;36472;52.170;20.884;2023-07-28T13:16:15;1.38;;;0.93;;
21274;SDS011;36472;52.170;20.884;2023-07-28T13:18:44;1.20;;;1.08;;
21274;SDS011;36472;52.170;20.884;2023-07-28T13:21:13;1.13;;;0.90;;
21274;SDS011;36472;52.170;20.884;2023-07-28T13:23:42;2.28;;;0.90;;
21274;SDS011;36472;52.170;20.884;2023-07-28T13:26:11;1.05;;;0.95;;
21274;SDS011;36472;52.170;20.884;2023-07-28T13:28:40;1.08;;;0.90;;
21274;SDS011;36472;52.170;20.884;2023-07-28T13:31:16;1.23;;;0.90;;
21274;SDS011;36472;52.170;20.884;2023-07-28T13:33:46;1.48;;;0.90;;
21274;SDS011;36472;52.170;20.884;2023-07-28T13:36:15;0.77;;;0.77;;
21274;SDS011;36472;52.170;20.884;2023-07-28T13:38:44;1.00;;;1.00;;
21274;SDS011;36472;52.170;20.884;2023-07-28T13:41:13;0.90;;;0.90;;
21274;SDS011;36472;52.170;20.884;2023-07-28T13:43:42;2.35;;;1.17;;
21274;SDS011;36472;52.170;20.884;2023-07-28T13:46:11;1.83;;;1.20;;
21274;SDS011;36472;52.170;20.884;2023-07-28T13:48:41;0.98;;;0.88;;
21274;SDS011;36472;52.170;20.884;2023-07-28T13:51:20;1.60;;;1.20;;
21274;SDS011;36472;52.170;20.884;2023-07-28T13:54:09;1.88;;;0.98;;
21274;SDS011;36472;52.170;20.884;2023-07-28T13:56:42;2.05;;;1.42;;
21274;SDS011;36472;52.170;20.884;2023-07-28T13:59:14;0.95;;;0.93;;
21274;SDS011;36472;52.170;20.884;2023-07-28T14:01:43;1.88;;;1.30;;
21274;SDS011;36472;52.170;20.884;2023-07-28T14:04:13;1.40;;;1.20;;
21274;SDS011;36472;52.170;20.884;2023-07-28T14:06:42;1.98;;;1.05;;
21274;SDS011;36472;52.170;20.884;2023-07-28T14:09:12;1.80;;;1.30;;
21274;SDS011;36472;52.170;20.884;2023-07-28T14:11:41;2.60;;;1.20;;
21274;SDS011;36472;52.170;20.884;2023-07-28T14:14:10;2.60;;;1.10;;
21274;SDS011;36472;52.170;20.884;2023-07-28T14:16:39;1.38;;;1.17;;
21274;SDS011;36472;52.170;20.884;2023-07-28T14:19:09;0.93;;;0.93;;
21274;SDS011;36472;52.170;20.884;2023-07-28T14:21:40;1.40;;;1.30;;
21274;SDS011;36472;52.170;20.884;2023-07-28T14:24:09;1.27;;;1.02;;
21274;SDS011;36472;52.170;20.884;2023-07-28T14:26:38;0.95;;;0.80;;
21274;SDS011;36472;52.170;20.884;2023-07-28T14:29:07;1.60;;;1.15;;
21274;SDS011;36472;52.170;20.884;2023-07-28T14:31:36;1.52;;;1.10;;
21274;SDS011;36472;52.170;20.884;2023-07-28T14:34:06;2.30;;;1.23;;
21274;SDS011;36472;52.170;20.884;2023-07-28T14:36:35;1.85;;;1.20;;
21274;SDS011;36472;52.170;20.884;2023-07-28T14:39:06;1.30;;;1.20;;
21274;SDS011;36472;52.170;20.884;2023-07-28T14:41:36;5.97;;;1.40;;
21274;SDS011;36472;52.170;20.884;2023-07-28T14:44:05;1.15;;;1.00;;
21274;SDS011;36472;52.170;20.884;2023-07-28T14:46:34;1.60;;;1.38;;
21274;SDS011;36472;52.170;20.884;2023-07-28T14:49:03;1.10;;;1.10;;
21274;SDS011;36472;52.170;20.884;2023-07-28T14:51:32;1.98;;;1.20;;
21274;SDS011;36472;52.170;20.884;2023-07-28T14:54:02;1.77;;;1.10;;
21274;SDS011;36472;52.170;20.884;2023-07-28T14:56:32;1.80;;;1.30;;